Time;durP1;ratioP1;P1;durP2;ratioP2;P2;SDS_P1;SDS_P2;PMS_P1;PMS_P2;Temp;Humidity;BMP_temperature;BMP_pressure;BME280_temperature;BME280_humidity;BME280_pressure;Samples;Min_cycle;Max_cycle;Signal;HPM_P1;HPM_P2
2021/03/18 00:02:17;;;;;;;5.42;3.55;;;;;;;2.41;78.99;96480.77;1785905;80;21522;-87
2021/03/18 00:04:45;;;;;;;6.95;3.90;;;;;;;2.44;79.47;96484.50;1799656;79;21155;-87
2021/03/18 00:07:13;;;;;;;4.67;3.60;;;;;;;2.44;79.34;96483.65;1792862;79;21156;-86
2021/03/18 00:09:41;;;;;;;4.05;3.05;;;;;;;2.45;79.18;96485.33;1750138;80;21199;-83
2021/03/18 00:12:09;;;;;;;5.35;4.08;;;;;;;2.43;79.11;96484.12;1781276;79;21190;-89
2021/03/18 00:14:36;;;;;;;6.87;5.17;;;;;;;2.39;79.81;96486.99;1792549;80;21155;-86
2021/03/18 00:17:04;;;;;;;6.78;4.95;;;;;;;2.34;78.47;96487.25;1761809;81;21146;-84
2021/03/18 00:19:32;;;;;;;6.15;4.83;;;;;;;2.29;78.11;96484.06;1755063;81;21128;-86
2021/03/18 00:22:00;;;;;;;8.50;5.08;;;;;;;2.24;78.47;96488.70;1764299;80;21555;-87
2021/03/18 00:24:28;;;;;;;8.28;4.80;;;;;;;2.18;79.09;96488.58;1733340;81;21144;-82
2021/03/18 00:27:21;;;;;;;6.65;4.65;;;;;;;2.11;78.09;96488.08;1720408;80;21276;-84
2021/03/18 00:29:48;;;;;;;7.55;5.10;;;;;;;2.07;78.67;96494.39;1739583;82;21735;-86
2021/03/18 00:32:18;;;;;;;9.40;4.90;;;;;;;2.06;78.94;96500.52;1740364;82;21293;-85
2021/03/18 00:34:47;;;;;;;7.25;5.03;;;;;;;2.03;79.37;96493.73;1740063;82;21270;-88
2021/03/18 00:37:58;;;;;;;7.53;4.83;;;;;;;2.02;79.07;96488.14;1749937;80;21179;-82
2021/03/18 00:41:26;;;;;;;6.80;4.92;;;;;;;2.04;79.65;96493.25;1720710;80;21310;-81
2021/03/18 00:43:54;;;;;;;7.95;5.55;;;;;;;2.01;79.26;96489.51;1758741;81;21143;-87
2021/03/18 00:46:23;;;;;;;7.08;5.20;;;;;;;2.02;79.21;96487.29;1784473;80;21560;-86
2021/03/18 00:49:29;;;;;;;8.00;5.33;;;;;;;2.07;79.88;96491.79;1759677;82;21184;-82
2021/03/18 00:51:57;;;;;;;7.37;5.00;;;;;;;2.12;79.30;96489.75;1778010;79;21125;-88
2021/03/18 00:54:25;;;;;;;6.85;5.12;;;;;;;2.18;79.70;96482.08;1803261;79;21155;-87
2021/03/18 00:56:53;;;;;;;7.42;6.03;;;;;;;2.21;79.58;96480.61;1798094;79;21553;-87
2021/03/18 00:59:20;;;;;;;9.95;5.33;;;;;;;2.25;79.53;96481.27;1786825;79;21089;-85
2021/03/18 01:02:41;;;;;;;10.35;5.60;;;;;;;2.25;78.78;96487.30;1744663;80;21237;-82
2021/03/18 01:05:34;;;;;;;9.08;6.25;;;;;;;2.25;79.11;96495.10;1769269;80;21576;-87
2021/03/18 01:08:59;;;;;;;10.15;6.45;;;;;;;2.26;79.44;96490.75;1778119;80;21224;-83
2021/03/18 01:12:08;;;;;;;8.25;5.50;;;;;;;2.21;78.89;96485.81;1764835;80;21090;-82
2021/03/18 01:15:38;;;;;;;8.98;6.28;;;;;;;2.25;79.45;96483.40;1790466;80;21150;-82
2021/03/18 01:21:59;;;;;;;9.13;6.25;;;;;;;2.24;78.88;96479.12;1772059;80;21117;-83
2021/03/18 01:25:30;;;;;;;8.73;6.58;;;;;;;2.24;79.25;96483.02;1647310;86;21191;-82
2021/03/18 01:31:46;;;;;;;10.08;6.00;;;;;;;2.17;79.23;96479.95;1804746;78;21151;-86
2021/03/18 01:34:15;;;;;;;10.50;6.00;;;;;;;2.12;79.04;96483.73;1828410;77;21169;-87
2021/03/18 01:37:02;;;;;;;9.70;6.17;;;;;;;2.10;79.23;96478.59;1866378;75;21156;-82
2021/03/18 01:39:30;;;;;;;11.57;7.10;;;;;;;2.09;79.53;96487.80;1829998;77;21125;-84
2021/03/18 01:42:03;;;;;;;11.25;7.03;;;;;;;2.08;79.25;96490.88;1829146;77;21124;-80
2021/03/18 01:44:30;;;;;;;11.18;6.62;;;;;;;2.12;79.32;96479.36;1825803;77;21128;-87
2021/03/18 01:46:58;;;;;;;9.35;5.97;;;;;;;2.17;79.24;96482.55;1831117;77;21137;-87
2021/03/18 01:50:34;;;;;;;9.65;6.10;;;;;;;2.22;79.99;96478.84;1809900;78;21141;-81
2021/03/18 01:53:38;;;;;;;11.65;7.92;;;;;;;2.27;79.74;96479.44;1730903;83;21199;-86
2021/03/18 01:57:17;;;;;;;10.95;6.67;;;;;;;2.34;79.64;96482.05;1705211;81;21329;-80
2021/03/18 02:03:52;;;;;;;12.40;7.30;;;;;;;2.56;79.57;96484.25;1818473;79;24885;-85
2021/03/18 02:11:13;;;;;;;10.05;6.80;;;;;;;2.62;79.80;96489.09;1811834;78;21120;-81
2021/03/18 02:13:41;;;;;;;11.43;6.92;;;;;;;2.67;79.87;96490.61;1795262;78;21184;-86
2021/03/18 02:16:31;;;;;;;11.28;7.15;;;;;;;2.69;79.57;96493.96;1792196;78;21144;-86
2021/03/18 02:24:01;;;;;;;12.33;7.53;;;;;;;2.64;79.26;96498.95;1831671;78;21337;-81
2021/03/18 02:32:21;;;;;;;13.15;8.25;;;;;;;2.72;78.75;96503.73;1731708;81;21164;-81
2021/03/18 02:35:58;;;;;;;13.55;8.33;;;;;;;2.77;78.97;96502.98;1732719;81;21344;-81
2021/03/18 02:39:34;;;;;;;12.47;7.92;;;;;;;2.77;78.76;96505.59;1733919;81;21181;-82
2021/03/18 02:43:16;;;;;;;14.85;8.68;;;;;;;2.76;78.86;96501.78;1710591;83;21130;-80
2021/03/18 02:50:37;;;;;;;14.65;9.30;;;;;;;2.68;78.58;96511.33;1701646;81;21137;-81
2021/03/18 02:53:48;;;;;;;14.65;9.00;;;;;;;2.58;78.42;96510.17;1604838;87;21189;-81
2021/03/18 02:57:14;;;;;;;14.07;9.23;;;;;;;2.53;78.55;96516.13;1601344;89;21242;-83
2021/03/18 03:00:37;;;;;;;12.88;8.80;;;;;;;2.47;78.50;96518.13;1536364;90;21334;-79
2021/03/18 03:03:41;;;;;;;15.03;9.30;;;;;;;2.47;78.66;96509.50;1843416;77;24587;-85
2021/03/18 03:07:26;;;;;;;15.63;8.93;;;;;;;2.37;79.02;96518.27;1799778;77;21285;-81
2021/03/18 03:11:06;;;;;;;15.00;8.68;;;;;;;2.34;78.89;96516.69;1688262;83;21188;-80
2021/03/18 03:14:46;;;;;;;14.10;8.80;;;;;;;2.35;78.94;96516.25;1702404;82;21337;-84
2021/03/18 03:18:23;;;;;;;12.80;8.63;;;;;;;2.32;79.05;96522.44;1709091;83;21154;-80
2021/03/18 03:25:43;;;;;;;15.05;9.40;;;;;;;2.32;79.37;96509.91;1641979;85;21242;-81
2021/03/18 03:33:38;;;;;;;14.70;9.78;;;;;;;2.39;79.52;96522.94;1695673;83;21193;-82
2021/03/18 03:36:32;;;;;;;13.85;8.53;;;;;;;2.38;79.36;96521.73;1688809;85;21228;-86
2021/03/18 03:39:48;;;;;;;;;;;;;;;2.39;79.75;96524.23;1651936;83;21287;-82
2021/03/18 03:42:16;;;;;;;16.00;8.98;;;;;;;2.37;79.25;96535.18;1737473;81;20427;-89
2021/03/18 03:44:44;;;;;;;13.68;9.18;;;;;;;2.38;79.53;96526.45;1772622;81;21187;-86
2021/03/18 03:47:12;;;;;;;15.48;9.98;;;;;;;2.39;79.63;96528.14;1779225;81;21167;-87
2021/03/18 03:50:47;;;;;;;13.58;8.68;;;;;;;2.44;79.93;96533.94;1739644;81;21151;-85
2021/03/18 03:53:58;;;;;;;15.38;9.13;;;;;;;2.46;79.92;96535.96;1750208;81;21588;-87
2021/03/18 03:57:53;;;;;;;17.25;9.50;;;;;;;2.51;79.94;96543.51;1691060;82;21302;-83
2021/03/18 04:01:27;;;;;;;15.05;9.50;;;;;;;2.56;79.93;96541.50;1688544;82;21307;-80
2021/03/18 04:04:59;;;;;;;14.05;8.90;;;;;;;2.55;79.62;96543.72;1721941;81;21252;-85
2021/03/18 04:08:28;;;;;;;16.67;10.32;;;;;;;2.56;80.54;96543.25;1759978;81;21133;-82
2021/03/18 04:11:35;;;;;;;16.62;10.68;;;;;;;2.58;79.75;96544.00;1756810;79;21290;-83
2021/03/18 04:14:50;;;;;;;14.35;9.05;;;;;;;2.49;79.74;96524.09;1704025;84;21298;-82
2021/03/18 04:18:35;;;;;;;16.20;9.45;;;;;;;2.56;79.59;96541.95;1597168;84;21580;-84
2021/03/18 04:22:04;;;;;;;16.32;9.48;;;;;;;2.50;79.36;96550.48;1609868;87;21267;-84
2021/03/18 04:25:19;;;;;;;17.23;11.00;;;;;;;2.58;79.03;96547.46;1853703;76;24912;-86
2021/03/18 04:28:13;;;;;;;15.48;9.60;;;;;;;2.47;79.46;96554.55;1830765;76;21122;-84
2021/03/18 04:31:42;;;;;;;19.05;11.53;;;;;;;2.44;80.02;96554.75;1832882;77;21253;-84
2021/03/18 04:34:28;;;;;;;17.00;10.23;;;;;;;2.35;79.51;96552.66;1845344;77;21117;-80
2021/03/18 04:37:10;;;;;;;18.37;10.88;;;;;;;2.36;79.84;96558.24;1773430;80;21149;-82
2021/03/18 04:39:40;;;;;;;18.30;11.43;;;;;;;2.34;79.83;96554.41;1787051;78;21133;-83
2021/03/18 04:42:14;;;;;;;18.27;10.25;;;;;;;2.30;79.32;96562.47;1832089;76;21114;-87
2021/03/18 04:45:51;;;;;;;21.20;10.90;;;;;;;2.24;79.73;96561.04;1832028;78;21669;-83
2021/03/18 04:48:28;;;;;;;18.80;10.28;;;;;;;2.22;79.85;96560.75;1833646;77;21153;-83
2021/03/18 04:55:35;;;;;;;18.98;11.38;;;;;;;2.22;79.96;96565.52;1795344;78;21160;-80
2021/03/18 04:58:17;;;;;;;22.75;13.85;;;;;;;2.26;80.04;96567.48;1811536;79;21147;-85
2021/03/18 05:00:52;;;;;;;19.60;11.40;;;;;;;2.30;80.37;96565.06;1751762;80;21145;-85
2021/03/18 05:03:20;;;;;;;19.37;10.95;;;;;;;2.38;80.96;96570.67;1734403;81;21258;-83
2021/03/18 05:06:07;;;;;;;17.57;10.70;;;;;;;2.45;80.48;96574.64;1723440;81;21542;-83
2021/03/18 05:08:45;;;;;;;16.57;10.63;;;;;;;2.46;79.33;96576.28;1776853;80;21254;-82
2021/03/18 05:11:14;;;;;;;17.62;10.43;;;;;;;2.53;80.16;96579.87;1746228;81;21297;-80
2021/03/18 05:13:44;;;;;;;21.90;11.78;;;;;;;2.61;80.51;96577.67;1773366;80;21589;-82
2021/03/18 05:16:14;;;;;;;17.65;11.70;;;;;;;2.64;80.04;96576.20;1751490;81;21175;-80
2021/03/18 05:18:44;;;;;;;19.10;11.45;;;;;;;2.68;79.74;96573.78;1741886;82;21447;-80
2021/03/18 05:21:12;;;;;;;19.73;12.33;;;;;;;2.79;80.42;96575.31;1741761;82;21286;-81
2021/03/18 05:23:41;;;;;;;19.55;11.83;;;;;;;2.91;80.37;96577.67;1738548;82;21585;-79
2021/03/18 05:26:10;;;;;;;19.92;11.73;;;;;;;3.02;80.76;96586.16;1731830;83;21256;-85
2021/03/18 05:28:37;;;;;;;20.62;11.93;;;;;;;3.05;80.40;96582.56;1731273;83;21221;-83
2021/03/18 05:31:05;;;;;;;16.80;11.33;;;;;;;3.08;80.43;96593.63;1731518;83;21674;-84
2021/03/18 05:33:33;;;;;;;19.42;12.53;;;;;;;3.08;79.83;96594.08;1731780;83;21187;-81
2021/03/18 05:36:01;;;;;;;19.77;11.53;;;;;;;3.10;80.54;96597.44;1731103;83;21270;-83
2021/03/18 05:38:29;;;;;;;17.50;11.97;;;;;;;3.11;80.67;96596.52;1704552;83;21191;-84
2021/03/18 05:40:58;;;;;;;17.48;11.03;;;;;;;3.19;80.18;96598.68;1742067;82;21137;-84
2021/03/18 05:43:26;;;;;;;19.17;11.75;;;;;;;3.24;79.95;96597.94;1753989;82;21156;-87
2021/03/18 05:45:56;;;;;;;16.07;9.63;;;;;;;3.31;80.15;96596.64;1774557;81;21669;-84
2021/03/18 05:48:25;;;;;;;16.90;10.98;;;;;;;3.40;81.22;96596.57;1751103;82;21140;-83
2021/03/18 05:50:54;;;;;;;18.77;11.40;;;;;;;3.42;79.98;96600.75;1771432;81;21180;-83
2021/03/18 05:53:24;;;;;;;20.37;11.50;;;;;;;3.40;79.74;96605.21;1754010;82;21230;-83
2021/03/18 05:55:53;;;;;;;17.52;10.30;;;;;;;3.44;79.76;96601.51;1771917;81;21570;-84
2021/03/18 05:58:23;;;;;;;15.55;9.13;;;;;;;3.47;80.30;96604.39;1747260;82;21140;-85
2021/03/18 06:00:53;;;;;;;19.02;11.83;;;;;;;3.43;80.90;96610.25;1771930;81;21156;-82
2021/03/18 06:03:21;;;;;;;18.45;12.33;;;;;;;3.44;80.62;96612.38;1751777;82;21318;-81
2021/03/18 06:05:53;;;;;;;16.87;11.85;;;;;;;3.50;80.05;96610.73;1772099;81;21726;-86
2021/03/18 06:08:23;;;;;;;17.73;12.53;;;;;;;3.53;79.65;96613.61;1753499;82;21140;-88
2021/03/18 06:10:51;;;;;;;22.87;11.53;;;;;;;3.59;80.23;96615.84;1761901;81;21120;-83
2021/03/18 06:13:19;;;;;;;16.95;10.90;;;;;;;3.65;79.59;96615.95;1751196;82;21144;-85
2021/03/18 06:15:47;;;;;;;19.35;11.65;;;;;;;3.70;79.46;96616.05;1751294;82;21188;-87
2021/03/18 06:18:20;;;;;;;22.87;12.95;;;;;;;3.78;79.53;96622.56;1722476;82;21144;-86
2021/03/18 06:21:13;;;;;;;21.97;13.58;;;;;;;3.84;79.12;96622.20;1750654;82;21163;-84
2021/03/18 06:23:43;;;;;;;18.07;11.50;;;;;;;3.90;79.38;96629.16;1738667;82;21188;-89
2021/03/18 06:26:38;;;;;;;17.40;12.18;;;;;;;3.96;79.49;96636.27;1702799;83;21136;-85
2021/03/18 06:29:42;;;;;;;17.85;11.35;;;;;;;3.95;78.71;96638.02;1739015;82;21550;-87
2021/03/18 06:32:20;;;;;;;17.45;12.28;;;;;;;4.01;80.11;96638.11;1722786;83;21169;-85
2021/03/18 06:35:13;;;;;;;19.20;13.50;;;;;;;3.98;79.34;96639.14;1742683;82;21278;-88
2021/03/18 06:37:51;;;;;;;21.20;13.80;;;;;;;4.10;79.00;96649.28;1735270;83;21143;-88
2021/03/18 06:40:27;;;;;;;19.15;13.10;;;;;;;4.17;78.33;96648.45;1734040;83;21155;-85
2021/03/18 06:43:21;;;;;;;19.17;13.22;;;;;;;4.20;78.33;96653.00;1709280;83;21159;-86
2021/03/18 06:45:55;;;;;;;20.90;14.60;;;;;;;4.27;78.17;96650.86;1734438;82;21166;-88
2021/03/18 06:48:23;;;;;;;18.50;12.37;;;;;;;4.31;78.45;96658.03;1727560;83;21151;-84
2021/03/18 06:50:52;;;;;;;20.15;13.38;;;;;;;4.38;79.89;96658.87;1704571;84;21147;-85
2021/03/18 06:53:29;;;;;;;17.05;11.73;;;;;;;4.46;79.21;96653.14;1721328;83;21594;-87
2021/03/18 06:55:59;;;;;;;19.23;13.38;;;;;;;4.54;78.34;96655.28;1711969;83;21147;-83
2021/03/18 06:58:29;;;;;;;20.45;12.82;;;;;;;4.54;78.14;96659.20;1741197;82;21147;-82
2021/03/18 07:01:06;;;;;;;18.32;13.10;;;;;;;4.67;78.38;96656.65;1727017;82;21104;-89
2021/03/18 07:03:37;;;;;;;20.08;12.93;;;;;;;4.80;78.01;96656.25;1710170;83;21148;-89
2021/03/18 07:06:13;;;;;;;18.67;14.23;;;;;;;4.84;77.28;96660.80;1710926;84;21152;-88
2021/03/18 07:08:41;;;;;;;20.57;13.00;;;;;;;4.81;77.72;96659.69;1745764;82;21136;-87
2021/03/18 07:11:21;;;;;;;24.75;13.13;;;;;;;4.80;76.87;96659.31;1757148;81;21522;-87
2021/03/18 07:13:51;;;;;;;23.18;15.28;;;;;;;4.84;77.29;96659.02;1750420;82;21151;-85
2021/03/18 07:16:20;;;;;;;22.25;16.10;;;;;;;4.89;77.20;96663.13;1752086;82;21661;-87
2021/03/18 07:18:59;;;;;;;20.57;15.48;;;;;;;4.85;76.90;96658.56;1744673;82;21151;-84
2021/03/18 07:21:37;;;;;;;20.08;14.78;;;;;;;4.88;76.95;96657.53;1708873;84;21592;-85
2021/03/18 07:24:24;;;;;;;20.60;14.60;;;;;;;4.92;77.13;96657.71;1738113;81;21148;-86
2021/03/18 07:26:54;;;;;;;20.40;15.10;;;;;;;4.87;77.06;96657.16;1736384;81;21112;-83
2021/03/18 07:29:28;;;;;;;22.30;13.88;;;;;;;4.80;76.46;96658.86;1731978;81;21736;-83
2021/03/18 07:31:57;;;;;;;21.50;14.93;;;;;;;4.73;76.41;96659.34;1731340;83;21194;-88
2021/03/18 07:34:25;;;;;;;20.02;14.85;;;;;;;4.69;76.34;96650.88;1731329;81;21168;-82
2021/03/18 07:36:57;;;;;;;19.48;12.78;;;;;;;4.71;76.58;96654.23;1730251;83;21133;-85
2021/03/18 07:39:25;;;;;;;19.25;13.20;;;;;;;4.75;76.31;96664.01;1732123;82;21141;-83
2021/03/18 07:41:54;;;;;;;21.12;14.20;;;;;;;4.74;75.56;96657.92;1732310;82;21558;-83
2021/03/18 07:44:22;;;;;;;17.70;11.55;;;;;;;4.76;75.58;96660.46;1731071;81;21144;-84
2021/03/18 07:46:53;;;;;;;21.90;12.50;;;;;;;4.73;76.60;96658.89;1732281;82;21193;-84
2021/03/18 07:49:27;;;;;;;19.27;12.80;;;;;;;4.68;76.35;96660.49;1716222;83;21161;-87
2021/03/18 07:52:01;;;;;;;16.07;10.93;;;;;;;4.76;77.16;96663.08;1732327;82;21609;-84
2021/03/18 07:54:32;;;;;;;19.25;12.73;;;;;;;4.85;78.50;96663.80;1732300;82;21593;-84
2021/03/18 07:57:00;;;;;;;19.60;11.83;;;;;;;4.91;76.66;96664.69;1732417;82;21152;-85
2021/03/18 07:59:32;;;;;;;16.07;10.23;;;;;;;5.03;76.60;96660.92;1732051;81;21738;-83
2021/03/18 08:02:22;;;;;;;18.07;10.82;;;;;;;5.02;76.44;96669.22;1732874;83;21150;-85
2021/03/18 08:04:53;;;;;;;19.62;12.07;;;;;;;5.10;76.25;96670.03;1732590;83;21169;-81
2021/03/18 08:07:48;;;;;;;15.90;10.88;;;;;;;5.24;75.35;96678.28;1731349;83;21162;-86
2021/03/18 08:10:28;;;;;;;17.05;10.32;;;;;;;5.28;76.42;96679.28;1732415;83;21173;-86
2021/03/18 08:13:03;;;;;;;15.80;10.43;;;;;;;5.38;77.04;96672.14;1733433;83;21328;-85
2021/03/18 08:15:43;;;;;;;15.72;10.38;;;;;;;5.41;75.75;96675.88;1731269;81;21193;-82
2021/03/18 08:18:22;;;;;;;15.13;10.98;;;;;;;5.44;76.17;96675.65;1732987;83;21125;-81
2021/03/18 08:20:57;;;;;;;14.90;10.05;;;;;;;5.56;75.47;96680.08;1732241;83;21154;-81
2021/03/18 08:23:32;;;;;;;16.52;11.33;;;;;;;5.62;76.50;96679.66;1732896;83;21591;-87
2021/03/18 08:26:09;;;;;;;14.98;11.22;;;;;;;5.73;75.52;96678.09;1732549;83;21173;-83
2021/03/18 08:28:56;;;;;;;14.83;10.53;;;;;;;5.89;75.72;96677.42;1785031;80;21149;-82
2021/03/18 08:31:44;;;;;;;15.13;10.98;;;;;;;5.98;75.74;96673.84;1784404;80;21172;-85
2021/03/18 08:34:13;;;;;;;17.10;11.50;;;;;;;6.00;74.99;96678.50;1785125;80;21173;-83
2021/03/18 08:36:58;;;;;;;16.57;12.25;;;;;;;5.98;75.94;96672.53;1785357;80;21158;-82
2021/03/18 08:39:44;;;;;;;18.10;13.00;;;;;;;5.92;74.93;96685.06;1785358;80;21169;-81
2021/03/18 08:42:35;;;;;;;18.30;12.23;;;;;;;5.85;74.08;96675.97;1785630;80;21562;-84
2021/03/18 08:45:11;;;;;;;16.35;12.13;;;;;;;5.85;73.85;96681.66;1785042;80;21829;-82
2021/03/18 08:47:51;;;;;;;17.92;12.05;;;;;;;5.84;72.78;96680.83;1771982;80;21573;-84
2021/03/18 08:50:29;;;;;;;17.23;12.68;;;;;;;5.84;73.60;96680.01;1790878;80;21255;-84
2021/03/18 08:52:59;;;;;;;21.25;11.93;;;;;;;5.91;73.70;96681.26;1790554;79;21089;-83
2021/03/18 08:55:43;;;;;;;18.65;12.47;;;;;;;5.87;73.17;96681.94;1790526;80;21330;-87
2021/03/18 08:58:14;;;;;;;16.52;11.90;;;;;;;5.81;71.82;96683.64;1770854;80;21582;-81
2021/03/18 09:00:45;;;;;;;17.32;13.45;;;;;;;5.83;73.82;96683.56;1789626;79;21125;-77
2021/03/18 09:03:21;;;;;;;20.70;12.90;;;;;;;5.85;74.24;96686.44;1816886;78;21164;-84
2021/03/18 09:05:56;;;;;;;21.77;12.93;;;;;;;5.84;73.72;96687.86;1747740;82;21142;-83
2021/03/18 09:08:30;;;;;;;18.40;11.70;;;;;;;5.80;73.85;96688.51;1817678;78;21101;-87
2021/03/18 09:10:58;;;;;;;15.20;11.48;;;;;;;5.87;75.13;96688.94;1747802;82;21113;-82
2021/03/18 09:13:26;;;;;;;15.90;11.93;;;;;;;5.91;74.21;96690.41;1817509;78;21154;-82
2021/03/18 09:15:57;;;;;;;16.62;12.58;;;;;;;6.01;74.41;96697.19;1747378;82;21653;-85
2021/03/18 09:18:30;;;;;;;16.05;11.12;;;;;;;6.14;74.23;96685.41;1720424;82;21150;-82
2021/03/18 09:21:08;;;;;;;17.45;12.15;;;;;;;6.29;75.07;96693.52;1718278;83;21691;-83
2021/03/18 09:23:42;;;;;;;16.60;11.73;;;;;;;6.43;74.83;96695.63;1717828;83;21781;-83
2021/03/18 09:26:14;;;;;;;17.12;10.75;;;;;;;6.38;75.65;96702.50;1726052;83;21146;-89
2021/03/18 09:28:46;;;;;;;14.35;11.20;;;;;;;6.38;74.27;96702.50;1738098;82;21154;-87
2021/03/18 09:31:21;;;;;;;15.38;9.93;;;;;;;6.40;75.64;96700.63;1738033;82;21590;-86
2021/03/18 09:33:52;;;;;;;15.85;11.38;;;;;;;6.43;75.61;96701.73;1736671;81;21161;-83
2021/03/18 09:36:29;;;;;;;17.98;11.33;;;;;;;6.51;75.22;96707.26;1737934;82;21161;-84
2021/03/18 09:39:12;;;;;;;12.98;10.75;;;;;;;6.55;74.12;96700.84;1737885;82;21145;-84
2021/03/18 09:41:45;;;;;;;15.00;10.30;;;;;;;6.59;72.73;96700.64;1738362;82;21197;-89
2021/03/18 09:44:22;;;;;;;13.45;10.75;;;;;;;6.69;74.58;96706.42;1737617;82;21197;-85
2021/03/18 09:46:57;;;;;;;15.50;11.43;;;;;;;6.82;73.98;96702.45;1711308;82;21177;-84
2021/03/18 09:49:30;;;;;;;15.13;10.95;;;;;;;6.96;73.95;96704.57;1736810;81;21582;-83
2021/03/18 09:52:05;;;;;;;15.85;11.63;;;;;;;7.09;73.43;96709.30;1738153;82;21152;-83
2021/03/18 09:54:34;;;;;;;15.38;11.35;;;;;;;7.21;72.89;96701.02;1738197;82;21197;-87
2021/03/18 09:57:06;;;;;;;17.60;13.45;;;;;;;7.32;73.30;96700.22;1737827;82;21174;-84
2021/03/18 09:59:38;;;;;;;15.30;9.90;;;;;;;7.45;73.18;96687.89;1738139;81;21132;-87
2021/03/18 10:02:07;;;;;;;16.85;11.10;;;;;;;7.57;75.62;96706.27;1743818;81;21129;-82
2021/03/18 10:04:39;;;;;;;16.10;11.75;;;;;;;7.52;73.31;96703.16;1737131;81;21114;-88
2021/03/18 10:07:08;;;;;;;16.62;12.10;;;;;;;7.56;74.24;96702.81;1740338;81;21152;-82
2021/03/18 10:09:41;;;;;;;15.93;13.28;;;;;;;7.55;72.70;96694.58;1738546;81;21589;-84
2021/03/18 10:12:12;;;;;;;13.43;10.63;;;;;;;7.64;71.38;96700.45;1739845;81;21658;-80
2021/03/18 10:14:51;;;;;;;16.75;13.78;;;;;;;7.71;72.77;96699.52;1739377;81;21121;-80
2021/03/18 10:17:37;;;;;;;14.38;11.80;;;;;;;7.74;72.48;96687.95;1754006;81;21601;-83
2021/03/18 10:20:11;;;;;;;14.25;11.20;;;;;;;7.88;72.93;96691.70;1741160;81;21598;-80
2021/03/18 10:22:46;;;;;;;16.75;11.85;;;;;;;7.96;71.74;96695.04;1740264;81;21224;-79
2021/03/18 10:25:16;;;;;;;17.62;12.37;;;;;;;7.98;70.28;96696.59;1733362;81;21177;-85
2021/03/18 10:27:48;;;;;;;15.45;12.15;;;;;;;7.97;71.29;96694.09;1716590;83;21719;-84
2021/03/18 10:30:21;;;;;;;14.93;11.25;;;;;;;8.07;72.06;96679.80;1723219;82;21275;-77
2021/03/18 10:33:15;;;;;;;11.95;10.10;;;;;;;8.09;72.93;96683.97;1785559;80;21165;-80
2021/03/18 10:35:55;;;;;;;12.78;10.15;;;;;;;8.19;72.01;96688.52;1788664;80;21654;-79
2021/03/18 10:38:36;;;;;;;13.68;9.45;;;;;;;8.25;71.40;96684.09;1795919;80;21179;-78
2021/03/18 10:41:14;;;;;;;11.30;9.53;;;;;;;8.37;70.69;96686.23;1728485;83;21574;-82
2021/03/18 10:43:45;;;;;;;10.23;7.55;;;;;;;8.42;70.69;96692.80;1726636;82;21156;-81
2021/03/18 10:46:18;;;;;;;12.23;7.90;;;;;;;8.47;73.21;96695.56;1724775;82;21650;-80
2021/03/18 10:48:49;;;;;;;10.60;7.33;;;;;;;8.16;71.81;96692.68;1554362;91;21291;-79
2021/03/18 10:51:20;;;;;;;10.45;7.80;;;;;;;7.98;70.20;96686.58;1576833;89;21292;-80
2021/03/18 10:53:51;;;;;;;8.65;6.05;;;;;;;7.98;70.20;96686.58;1599761;90;21172;-80
2021/03/18 10:56:28;;;;;;;8.50;6.22;;;;;;;7.92;70.50;96697.06;1599818;90;21657;-78
2021/03/18 10:58:57;;;;;;;8.80;6.87;;;;;;;7.92;70.50;96697.06;1595304;89;21182;-79
2021/03/18 11:01:29;;;;;;;8.23;6.42;;;;;;;7.97;70.86;96691.46;1589879;88;21593;-79
2021/03/18 11:04:05;;;;;;;10.08;6.47;;;;;;;8.23;73.51;96678.97;1595401;89;21628;-81
2021/03/18 11:06:49;;;;;;;8.08;6.90;;;;;;;8.23;73.51;96678.97;1623703;83;21201;-80
2021/03/18 11:09:18;;;;;;;8.15;6.85;;;;;;;8.28;70.62;96686.49;1786940;79;21542;-79
2021/03/18 11:12:01;;;;;;;14.65;11.35;;;;;;;8.39;70.28;96685.64;1804070;79;21144;-84
2021/03/18 11:14:31;;;;;;;12.75;8.28;;;;;;;8.49;70.35;96687.13;1785146;80;21152;-81
2021/03/18 11:17:08;;;;;;;9.00;7.58;;;;;;;8.51;70.81;96688.67;1785803;79;21519;-79
2021/03/18 11:19:37;;;;;;;8.30;7.03;;;;;;;8.64;71.16;96684.59;1785537;80;21561;-85
2021/03/18 11:22:06;;;;;;;11.22;7.55;;;;;;;8.64;70.22;96683.28;1785792;79;21179;-80
2021/03/18 11:24:33;;;;;;;6.90;5.70;;;;;;;8.72;69.63;96678.25;1795987;79;21207;-81
2021/03/18 11:27:04;;;;;;;8.45;6.55;;;;;;;8.82;67.97;96669.14;1753372;82;21188;-79
2021/03/18 11:29:36;;;;;;;9.03;7.42;;;;;;;8.88;70.13;96663.88;1747915;81;21160;-80
2021/03/18 11:32:07;;;;;;;8.05;6.90;;;;;;;8.96;68.69;96668.03;1737652;82;21160;-86
2021/03/18 11:34:38;;;;;;;11.40;8.08;;;;;;;9.13;69.83;96667.17;1737198;82;21155;-83
2021/03/18 11:37:11;;;;;;;8.43;6.80;;;;;;;9.20;68.61;96661.76;1737960;82;21587;-76
2021/03/18 11:39:41;;;;;;;9.03;8.13;;;;;;;9.33;70.20;96658.45;1738831;81;21581;-83
2021/03/18 11:42:09;;;;;;;9.53;7.67;;;;;;;9.21;67.95;96656.86;1736078;82;21209;-78
2021/03/18 11:44:36;;;;;;;9.35;7.90;;;;;;;9.24;68.11;96657.90;1735635;81;21160;-79
2021/03/18 11:47:09;;;;;;;11.68;7.65;;;;;;;9.16;68.37;96651.12;1734562;82;21164;-79
2021/03/18 11:49:43;;;;;;;9.10;7.83;;;;;;;9.00;67.24;96637.92;1719048;82;21207;-77
2021/03/18 11:52:11;;;;;;;8.68;6.92;;;;;;;8.90;68.38;96649.67;1737017;81;21143;-76
2021/03/18 11:54:40;;;;;;;8.58;6.65;;;;;;;8.77;68.75;96646.84;1736875;82;21650;-80
2021/03/18 11:57:07;;;;;;;8.55;6.67;;;;;;;8.72;70.22;96644.58;1736533;82;21202;-85
2021/03/18 11:59:37;;;;;;;6.95;5.45;;;;;;;8.53;68.31;96638.16;1736715;82;21191;-82
2021/03/18 12:02:05;;;;;;;8.48;6.42;;;;;;;8.49;68.40;96638.53;1736787;82;21200;-83
2021/03/18 12:04:33;;;;;;;5.80;5.20;;;;;;;8.47;68.25;96637.31;1736419;82;21589;-82
2021/03/18 12:07:01;;;;;;;6.70;5.70;;;;;;;8.44;70.41;96641.00;1736945;81;21155;-83
2021/03/18 12:09:29;;;;;;;7.17;5.65;;;;;;;8.25;69.21;96639.45;1736581;82;21172;-80
2021/03/18 12:11:57;;;;;;;6.87;5.50;;;;;;;8.25;69.22;96636.83;1736125;82;21156;-77
2021/03/18 12:14:25;;;;;;;5.65;4.87;;;;;;;8.41;69.68;96638.60;1736651;82;21656;-82
2021/03/18 12:16:53;;;;;;;5.67;4.75;;;;;;;8.56;70.74;96636.59;1736782;82;21160;-80
2021/03/18 12:19:21;;;;;;;4.92;4.37;;;;;;;8.68;68.89;96635.27;1736443;82;21166;-79
2021/03/18 12:21:48;;;;;;;5.15;4.03;;;;;;;8.86;68.92;96634.27;1737511;81;21585;-80
2021/03/18 12:24:16;;;;;;;5.17;4.15;;;;;;;8.95;68.59;96636.62;1736676;82;21581;-79
2021/03/18 12:26:44;;;;;;;6.60;5.10;;;;;;;9.04;69.01;96630.16;1732060;82;22000;-84
2021/03/18 12:29:12;;;;;;;5.55;4.53;;;;;;;9.06;67.61;96634.78;1731331;82;21201;-84
2021/03/18 12:31:40;;;;;;;5.28;4.00;;;;;;;9.04;67.42;96626.21;1731166;82;21213;-87
2021/03/18 12:34:08;;;;;;;4.10;3.42;;;;;;;9.03;68.49;96626.31;1731029;82;21196;-83
2021/03/18 12:36:39;;;;;;;4.62;3.45;;;;;;;8.98;68.44;96623.23;1731140;82;21149;-84
2021/03/18 12:39:09;;;;;;;4.65;3.90;;;;;;;8.85;67.66;96626.85;1730962;82;21181;-80
2021/03/18 12:41:38;;;;;;;6.67;3.80;;;;;;;8.81;66.19;96615.39;1730905;82;21172;-82
2021/03/18 12:44:06;;;;;;;5.25;3.67;;;;;;;8.72;67.19;96621.75;1731061;82;21584;-79
2021/03/18 12:46:34;;;;;;;4.55;4.10;;;;;;;8.60;65.37;96624.04;1731068;83;21133;-83
2021/03/18 12:49:04;;;;;;;6.50;3.83;;;;;;;8.50;67.01;96625.27;1730981;82;21171;-85
2021/03/18 12:51:32;;;;;;;3.87;3.40;;;;;;;8.42;66.12;96619.27;1731396;83;21203;-87
2021/03/18 12:54:00;;;;;;;4.22;3.83;;;;;;;8.40;64.51;96620.34;1737418;81;21168;-85
2021/03/18 12:56:28;;;;;;;5.08;3.80;;;;;;;8.37;65.64;96624.06;1731325;83;21156;-85
2021/03/18 12:58:56;;;;;;;3.98;3.58;;;;;;;8.25;67.70;96617.98;1732400;83;21593;-89
2021/03/18 13:01:24;;;;;;;5.20;4.25;;;;;;;8.12;66.42;96620.71;1732390;83;21156;-92
2021/03/18 13:03:52;;;;;;;5.28;4.20;;;;;;;7.99;66.00;96622.64;1732378;83;21119;-84
2021/03/18 13:06:20;;;;;;;5.25;4.28;;;;;;;7.91;66.07;96620.59;1732451;83;21168;-92
2021/03/18 13:08:48;;;;;;;5.50;4.55;;;;;;;7.80;66.73;96620.58;1732390;83;21586;-82
2021/03/18 13:11:16;;;;;;;5.22;4.70;;;;;;;7.69;67.03;96614.84;1731856;83;21140;-83
2021/03/18 13:13:45;;;;;;;5.87;4.62;;;;;;;7.63;67.00;96623.20;1732170;83;21188;-86
2021/03/18 13:16:13;;;;;;;5.28;4.42;;;;;;;7.62;67.40;96618.90;1732602;81;21163;-89
2021/03/18 13:18:42;;;;;;;4.33;3.80;;;;;;;7.62;67.50;96614.97;1732588;83;21141;-89